sensor_id;sensor_type;location;lat;lon;timestamp;P1;durP1;ratioP1;P2;durP2;ratioP2
17725;SDS011;8983;53.156;17.960;2024-03-02T00:01:06;53.40;;;24.50;;
17725;SDS011;8983;53.156;17.960;2024-03-02T00:03:36;52.77;;;24.03;;
17725;SDS011;8983;53.156;17.960;2024-03-02T00:06:05;53.60;;;24.47;;
17725;SDS011;8983;53.156;17.960;2024-03-02T00:08:33;55.43;;;25.43;;
17725;SDS011;8983;53.156;17.960;2024-03-02T00:11:03;52.17;;;24.50;;
17725;SDS011;8983;53.156;17.960;2024-03-02T00:13:31;52.67;;;23.77;;
17725;SDS011;8983;53.156;17.960;2024-03-02T00:16:01;53.97;;;25.23;;
17725;SDS011;8983;53.156;17.960;2024-03-02T00:18:32;51.33;;;24.97;;
17725;SDS011;8983;53.156;17.960;2024-03-02T00:21:02;50.33;;;24.67;;
17725;SDS011;8983;53.156;17.960;2024-03-02T00:23:35;64.40;;;26.53;;
17725;SDS011;8983;53.156;17.960;2024-03-02T00:26:06;56.27;;;24.70;;
17725;SDS011;8983;53.156;17.960;2024-03-02T00:28:38;65.53;;;27.30;;
17725;SDS011;8983;53.156;17.960;2024-03-02T00:31:10;61.83;;;26.63;;
17725;SDS011;8983;53.156;17.960;2024-03-02T00:33:41;52.70;;;24.70;;
17725;SDS011;8983;53.156;17.960;2024-03-02T00:36:10;50.93;;;24.23;;
17725;SDS011;8983;53.156;17.960;2024-03-02T00:38:46;50.57;;;23.90;;
17725;SDS011;8983;53.156;17.960;2024-03-02T00:41:17;54.50;;;25.27;;
17725;SDS011;8983;53.156;17.960;2024-03-02T00:43:59;58.43;;;25.67;;
17725;SDS011;8983;53.156;17.960;2024-03-02T00:46:28;59.33;;;26.67;;
17725;SDS011;8983;53.156;17.960;2024-03-02T00:49:00;46.70;;;24.27;;
17725;SDS011;8983;53.156;17.960;2024-03-02T00:51:31;54.50;;;24.37;;
17725;SDS011;8983;53.156;17.960;2024-03-02T00:54:03;50.20;;;25.47;;
17725;SDS011;8983;53.156;17.960;2024-03-02T00:56:33;50.97;;;24.70;;
17725;SDS011;8983;53.156;17.960;2024-03-02T00:59:02;51.47;;;24.00;;
17725;SDS011;8983;53.156;17.960;2024-03-02T01:01:30;53.70;;;25.47;;
17725;SDS011;8983;53.156;17.960;2024-03-02T01:03:58;51.57;;;24.83;;
17725;SDS011;8983;53.156;17.960;2024-03-02T01:06:27;58.60;;;26.90;;
17725;SDS011;8983;53.156;17.960;2024-03-02T01:08:55;55.33;;;26.67;;
17725;SDS011;8983;53.156;17.960;2024-03-02T01:11:23;50.10;;;24.93;;
17725;SDS011;8983;53.156;17.960;2024-03-02T01:13:53;49.67;;;24.97;;
17725;SDS011;8983;53.156;17.960;2024-03-02T01:16:21;44.47;;;23.73;;
17725;SDS011;8983;53.156;17.960;2024-03-02T01:18:49;52.00;;;24.40;;
17725;SDS011;8983;53.156;17.960;2024-03-02T01:21:18;53.63;;;25.20;;
17725;SDS011;8983;53.156;17.960;2024-03-02T01:23:46;47.77;;;24.47;;
17725;SDS011;8983;53.156;17.960;2024-03-02T01:26:14;50.77;;;26.20;;
17725;SDS011;8983;53.156;17.960;2024-03-02T01:28:43;50.27;;;24.00;;
17725;SDS011;8983;53.156;17.960;2024-03-02T01:31:13;48.10;;;24.47;;
17725;SDS011;8983;53.156;17.960;2024-03-02T01:33:41;47.57;;;24.90;;
17725;SDS011;8983;53.156;17.960;2024-03-02T01:36:09;49.73;;;24.87;;
17725;SDS011;8983;53.156;17.960;2024-03-02T01:38:37;50.40;;;24.97;;
17725;SDS011;8983;53.156;17.960;2024-03-02T01:41:05;50.83;;;24.80;;
17725;SDS011;8983;53.156;17.960;2024-03-02T01:43:34;50.53;;;25.80;;
17725;SDS011;8983;53.156;17.960;2024-03-02T01:46:07;42.20;;;23.00;;
17725;SDS011;8983;53.156;17.960;2024-03-02T01:48:37;50.23;;;24.87;;
17725;SDS011;8983;53.156;17.960;2024-03-02T01:51:05;52.50;;;23.87;;
17725;SDS011;8983;53.156;17.960;2024-03-02T01:53:34;53.17;;;24.73;;
17725;SDS011;8983;53.156;17.960;2024-03-02T01:56:02;50.33;;;23.73;;
17725;SDS011;8983;53.156;17.960;2024-03-02T01:58:31;48.47;;;24.10;;
17725;SDS011;8983;53.156;17.960;2024-03-02T02:00:59;48.30;;;24.60;;
17725;SDS011;8983;53.156;17.960;2024-03-02T02:03:28;49.37;;;24.30;;
17725;SDS011;8983;53.156;17.960;2024-03-02T02:05:57;47.17;;;24.20;;
17725;SDS011;8983;53.156;17.960;2024-03-02T02:08:25;50.60;;;25.20;;
17725;SDS011;8983;53.156;17.960;2024-03-02T02:10:53;46.87;;;24.03;;
17725;SDS011;8983;53.156;17.960;2024-03-02T02:13:22;52.00;;;24.53;;
17725;SDS011;8983;53.156;17.960;2024-03-02T02:15:50;48.87;;;23.70;;
17725;SDS011;8983;53.156;17.960;2024-03-02T02:18:19;48.10;;;24.30;;
17725;SDS011;8983;53.156;17.960;2024-03-02T02:20:48;51.63;;;24.00;;
17725;SDS011;8983;53.156;17.960;2024-03-02T02:23:17;46.63;;;23.33;;
17725;SDS011;8983;53.156;17.960;2024-03-02T02:25:45;46.37;;;22.67;;
17725;SDS011;8983;53.156;17.960;2024-03-02T02:28:13;50.00;;;23.87;;
17725;SDS011;8983;53.156;17.960;2024-03-02T02:30:42;46.83;;;23.70;;
17725;SDS011;8983;53.156;17.960;2024-03-02T02:33:10;44.97;;;22.47;;
17725;SDS011;8983;53.156;17.960;2024-03-02T02:35:37;42.73;;;23.00;;
17725;SDS011;8983;53.156;17.960;2024-03-02T02:38:05;43.20;;;21.57;;
17725;SDS011;8983;53.156;17.960;2024-03-02T02:40:35;46.87;;;21.97;;
17725;SDS011;8983;53.156;17.960;2024-03-02T02:43:03;43.30;;;21.50;;
17725;SDS011;8983;53.156;17.960;2024-03-02T02:45:33;43.37;;;21.47;;
17725;SDS011;8983;53.156;17.960;2024-03-02T02:48:01;45.17;;;21.37;;
17725;SDS011;8983;53.156;17.960;2024-03-02T02:50:29;48.83;;;22.53;;
17725;SDS011;8983;53.156;17.960;2024-03-02T02:52:58;43.80;;;21.60;;
17725;SDS011;8983;53.156;17.960;2024-03-02T02:55:26;40.43;;;21.80;;
17725;SDS011;8983;53.156;17.960;2024-03-02T02:57:55;42.00;;;21.77;;
17725;SDS011;8983;53.156;17.960;2024-03-02T03:00:24;43.27;;;20.77;;
17725;SDS011;8983;53.156;17.960;2024-03-02T03:02:52;45.37;;;21.83;;
17725;SDS011;8983;53.156;17.960;2024-03-02T03:05:20;39.83;;;21.00;;
17725;SDS011;8983;53.156;17.960;2024-03-02T03:07:48;37.87;;;19.87;;
17725;SDS011;8983;53.156;17.960;2024-03-02T03:10:17;41.07;;;21.03;;
17725;SDS011;8983;53.156;17.960;2024-03-02T03:12:48;42.53;;;21.80;;
17725;SDS011;8983;53.156;17.960;2024-03-02T03:15:18;45.07;;;20.97;;
17725;SDS011;8983;53.156;17.960;2024-03-02T03:17:46;43.43;;;20.77;;
17725;SDS011;8983;53.156;17.960;2024-03-02T03:20:15;39.47;;;18.77;;
17725;SDS011;8983;53.156;17.960;2024-03-02T03:22:43;36.47;;;17.30;;
17725;SDS011;8983;53.156;17.960;2024-03-02T03:25:11;38.03;;;18.53;;
17725;SDS011;8983;53.156;17.960;2024-03-02T03:27:39;37.83;;;18.70;;
17725;SDS011;8983;53.156;17.960;2024-03-02T03:30:08;41.57;;;20.00;;
17725;SDS011;8983;53.156;17.960;2024-03-02T03:32:39;40.60;;;19.67;;
17725;SDS011;8983;53.156;17.960;2024-03-02T03:35:07;40.00;;;19.20;;
17725;SDS011;8983;53.156;17.960;2024-03-02T03:37:36;35.00;;;18.53;;
17725;SDS011;8983;53.156;17.960;2024-03-02T03:40:05;36.93;;;18.83;;
17725;SDS011;8983;53.156;17.960;2024-03-02T03:42:37;35.40;;;18.40;;
17725;SDS011;8983;53.156;17.960;2024-03-02T03:45:06;35.03;;;18.43;;
17725;SDS011;8983;53.156;17.960;2024-03-02T03:47:34;40.87;;;19.50;;
17725;SDS011;8983;53.156;17.960;2024-03-02T03:50:05;31.20;;;18.43;;
17725;SDS011;8983;53.156;17.960;2024-03-02T03:52:34;36.50;;;17.33;;
17725;SDS011;8983;53.156;17.960;2024-03-02T03:55:03;28.23;;;16.70;;
17725;SDS011;8983;53.156;17.960;2024-03-02T03:57:32;29.73;;;16.03;;
17725;SDS011;8983;53.156;17.960;2024-03-02T04:00:01;29.07;;;15.83;;
17725;SDS011;8983;53.156;17.960;2024-03-02T04:02:29;34.87;;;16.97;;
17725;SDS011;8983;53.156;17.960;2024-03-02T04:04:57;28.47;;;16.80;;
17725;SDS011;8983;53.156;17.960;2024-03-02T04:07:27;31.03;;;16.80;;
17725;SDS011;8983;53.156;17.960;2024-03-02T04:09:55;34.67;;;16.53;;
17725;SDS011;8983;53.156;17.960;2024-03-02T04:12:24;32.53;;;16.17;;
17725;SDS011;8983;53.156;17.960;2024-03-02T04:14:52;30.00;;;15.23;;
17725;SDS011;8983;53.156;17.960;2024-03-02T04:17:20;23.60;;;15.17;;
17725;SDS011;8983;53.156;17.960;2024-03-02T04:19:48;30.00;;;15.93;;
17725;SDS011;8983;53.156;17.960;2024-03-02T04:22:17;30.33;;;15.27;;
17725;SDS011;8983;53.156;17.960;2024-03-02T04:24:52;23.70;;;14.53;;
17725;SDS011;8983;53.156;17.960;2024-03-02T04:27:20;27.03;;;15.23;;
17725;SDS011;8983;53.156;17.960;2024-03-02T04:29:49;25.53;;;15.20;;
17725;SDS011;8983;53.156;17.960;2024-03-02T04:32:17;30.37;;;16.30;;
17725;SDS011;8983;53.156;17.960;2024-03-02T04:34:47;29.67;;;15.20;;
17725;SDS011;8983;53.156;17.960;2024-03-02T04:37:15;29.73;;;15.43;;
17725;SDS011;8983;53.156;17.960;2024-03-02T04:39:44;27.80;;;14.47;;
17725;SDS011;8983;53.156;17.960;2024-03-02T04:42:14;27.17;;;14.97;;
17725;SDS011;8983;53.156;17.960;2024-03-02T04:44:42;28.87;;;15.17;;
17725;SDS011;8983;53.156;17.960;2024-03-02T04:47:10;29.63;;;15.10;;
17725;SDS011;8983;53.156;17.960;2024-03-02T04:49:38;23.77;;;14.67;;
17725;SDS011;8983;53.156;17.960;2024-03-02T04:52:07;28.50;;;16.07;;
17725;SDS011;8983;53.156;17.960;2024-03-02T04:54:35;27.37;;;14.67;;
17725;SDS011;8983;53.156;17.960;2024-03-02T04:57:25;25.53;;;14.83;;
17725;SDS011;8983;53.156;17.960;2024-03-02T04:59:53;24.93;;;15.17;;
17725;SDS011;8983;53.156;17.960;2024-03-02T05:02:21;24.50;;;14.27;;
17725;SDS011;8983;53.156;17.960;2024-03-02T05:04:50;23.67;;;14.57;;
17725;SDS011;8983;53.156;17.960;2024-03-02T05:07:18;26.77;;;14.60;;
17725;SDS011;8983;53.156;17.960;2024-03-02T05:09:47;22.90;;;14.00;;
17725;SDS011;8983;53.156;17.960;2024-03-02T05:12:15;24.40;;;14.40;;
17725;SDS011;8983;53.156;17.960;2024-03-02T05:14:59;27.17;;;15.60;;
17725;SDS011;8983;53.156;17.960;2024-03-02T05:17:27;27.50;;;14.80;;
17725;SDS011;8983;53.156;17.960;2024-03-02T05:19:55;26.33;;;14.53;;
17725;SDS011;8983;53.156;17.960;2024-03-02T05:22:23;25.33;;;14.50;;
17725;SDS011;8983;53.156;17.960;2024-03-02T05:24:51;28.87;;;14.70;;
17725;SDS011;8983;53.156;17.960;2024-03-02T05:27:20;29.53;;;15.20;;
17725;SDS011;8983;53.156;17.960;2024-03-02T05:29:48;26.50;;;15.50;;
17725;SDS011;8983;53.156;17.960;2024-03-02T05:32:18;26.03;;;15.17;;
17725;SDS011;8983;53.156;17.960;2024-03-02T05:34:46;28.50;;;16.17;;
17725;SDS011;8983;53.156;17.960;2024-03-02T05:37:14;28.47;;;15.70;;
17725;SDS011;8983;53.156;17.960;2024-03-02T05:39:42;28.37;;;16.07;;
17725;SDS011;8983;53.156;17.960;2024-03-02T05:42:11;30.87;;;16.30;;
17725;SDS011;8983;53.156;17.960;2024-03-02T05:44:39;29.90;;;16.90;;
17725;SDS011;8983;53.156;17.960;2024-03-02T05:47:07;32.60;;;18.10;;
17725;SDS011;8983;53.156;17.960;2024-03-02T05:49:39;29.97;;;16.97;;
17725;SDS011;8983;53.156;17.960;2024-03-02T05:52:09;29.07;;;17.87;;
17725;SDS011;8983;53.156;17.960;2024-03-02T05:54:37;35.83;;;17.70;;
17725;SDS011;8983;53.156;17.960;2024-03-02T05:57:06;29.20;;;17.43;;
17725;SDS011;8983;53.156;17.960;2024-03-02T05:59:55;32.10;;;16.63;;
17725;SDS011;8983;53.156;17.960;2024-03-02T06:02:24;27.37;;;16.27;;
17725;SDS011;8983;53.156;17.960;2024-03-02T06:04:55;26.63;;;15.13;;
17725;SDS011;8983;53.156;17.960;2024-03-02T06:07:23;28.60;;;15.33;;
17725;SDS011;8983;53.156;17.960;2024-03-02T06:09:52;25.30;;;15.60;;
17725;SDS011;8983;53.156;17.960;2024-03-02T06:12:20;25.70;;;16.73;;
17725;SDS011;8983;53.156;17.960;2024-03-02T06:14:48;31.33;;;16.43;;
17725;SDS011;8983;53.156;17.960;2024-03-02T06:17:16;26.27;;;15.90;;
17725;SDS011;8983;53.156;17.960;2024-03-02T06:19:45;27.10;;;16.10;;
17725;SDS011;8983;53.156;17.960;2024-03-02T06:22:15;25.23;;;16.43;;
17725;SDS011;8983;53.156;17.960;2024-03-02T06:24:45;28.60;;;16.43;;
17725;SDS011;8983;53.156;17.960;2024-03-02T06:27:13;27.27;;;16.60;;
17725;SDS011;8983;53.156;17.960;2024-03-02T06:29:41;27.70;;;16.40;;
17725;SDS011;8983;53.156;17.960;2024-03-02T06:32:10;28.40;;;17.10;;
17725;SDS011;8983;53.156;17.960;2024-03-02T06:34:37;29.17;;;16.33;;
17725;SDS011;8983;53.156;17.960;2024-03-02T06:37:05;28.50;;;16.37;;
17725;SDS011;8983;53.156;17.960;2024-03-02T06:39:35;28.57;;;16.40;;
17725;SDS011;8983;53.156;17.960;2024-03-02T06:42:03;28.33;;;16.43;;
17725;SDS011;8983;53.156;17.960;2024-03-02T06:44:31;26.80;;;16.00;;
17725;SDS011;8983;53.156;17.960;2024-03-02T06:46:59;27.70;;;15.77;;
17725;SDS011;8983;53.156;17.960;2024-03-02T06:49:28;30.47;;;16.27;;
17725;SDS011;8983;53.156;17.960;2024-03-02T06:51:56;29.43;;;16.37;;
17725;SDS011;8983;53.156;17.960;2024-03-02T06:54:24;25.07;;;15.57;;
17725;SDS011;8983;53.156;17.960;2024-03-02T06:56:54;25.83;;;15.87;;
17725;SDS011;8983;53.156;17.960;2024-03-02T06:59:22;28.07;;;15.97;;
17725;SDS011;8983;53.156;17.960;2024-03-02T07:01:51;29.27;;;15.03;;
17725;SDS011;8983;53.156;17.960;2024-03-02T07:04:19;24.20;;;14.80;;
17725;SDS011;8983;53.156;17.960;2024-03-02T07:06:47;25.33;;;15.63;;
17725;SDS011;8983;53.156;17.960;2024-03-02T07:09:17;31.97;;;15.53;;
17725;SDS011;8983;53.156;17.960;2024-03-02T07:11:49;27.30;;;15.73;;
17725;SDS011;8983;53.156;17.960;2024-03-02T07:14:19;28.07;;;15.17;;
17725;SDS011;8983;53.156;17.960;2024-03-02T07:16:47;25.30;;;15.37;;
17725;SDS011;8983;53.156;17.960;2024-03-02T07:19:16;26.57;;;15.00;;
17725;SDS011;8983;53.156;17.960;2024-03-02T07:21:44;25.23;;;16.03;;
17725;SDS011;8983;53.156;17.960;2024-03-02T07:24:13;30.13;;;17.60;;
17725;SDS011;8983;53.156;17.960;2024-03-02T07:26:42;29.63;;;16.43;;
17725;SDS011;8983;53.156;17.960;2024-03-02T07:29:14;29.53;;;16.27;;
17725;SDS011;8983;53.156;17.960;2024-03-02T07:31:43;29.43;;;16.77;;
17725;SDS011;8983;53.156;17.960;2024-03-02T07:34:11;26.00;;;15.43;;
17725;SDS011;8983;53.156;17.960;2024-03-02T07:36:41;24.73;;;15.67;;
17725;SDS011;8983;53.156;17.960;2024-03-02T07:39:09;29.37;;;15.67;;
17725;SDS011;8983;53.156;17.960;2024-03-02T07:41:37;29.87;;;15.27;;
17725;SDS011;8983;53.156;17.960;2024-03-02T07:44:06;25.53;;;16.00;;
17725;SDS011;8983;53.156;17.960;2024-03-02T07:46:34;27.30;;;16.70;;
17725;SDS011;8983;53.156;17.960;2024-03-02T07:49:07;28.83;;;16.93;;
17725;SDS011;8983;53.156;17.960;2024-03-02T07:51:36;24.90;;;15.83;;
17725;SDS011;8983;53.156;17.960;2024-03-02T07:54:04;28.77;;;16.37;;
17725;SDS011;8983;53.156;17.960;2024-03-02T07:56:32;29.40;;;16.83;;
17725;SDS011;8983;53.156;17.960;2024-03-02T07:59:01;29.20;;;15.63;;
17725;SDS011;8983;53.156;17.960;2024-03-02T08:01:29;28.53;;;16.20;;
17725;SDS011;8983;53.156;17.960;2024-03-02T08:03:59;28.80;;;16.67;;
17725;SDS011;8983;53.156;17.960;2024-03-02T08:06:31;28.20;;;17.63;;
17725;SDS011;8983;53.156;17.960;2024-03-02T08:09:00;28.97;;;16.80;;
17725;SDS011;8983;53.156;17.960;2024-03-02T08:11:31;25.97;;;16.67;;
17725;SDS011;8983;53.156;17.960;2024-03-02T08:13:59;26.30;;;16.03;;
17725;SDS011;8983;53.156;17.960;2024-03-02T08:16:28;25.70;;;15.40;;
17725;SDS011;8983;53.156;17.960;2024-03-02T08:18:56;32.57;;;17.10;;
17725;SDS011;8983;53.156;17.960;2024-03-02T08:21:25;28.50;;;16.13;;
17725;SDS011;8983;53.156;17.960;2024-03-02T08:23:58;28.60;;;16.43;;
17725;SDS011;8983;53.156;17.960;2024-03-02T08:26:26;27.70;;;16.83;;
17725;SDS011;8983;53.156;17.960;2024-03-02T08:28:57;29.37;;;17.17;;
17725;SDS011;8983;53.156;17.960;2024-03-02T08:31:28;28.40;;;17.27;;
17725;SDS011;8983;53.156;17.960;2024-03-02T08:33:56;29.17;;;17.63;;
17725;SDS011;8983;53.156;17.960;2024-03-02T08:36:25;26.97;;;16.27;;
17725;SDS011;8983;53.156;17.960;2024-03-02T08:38:54;26.83;;;16.73;;
17725;SDS011;8983;53.156;17.960;2024-03-02T08:41:23;28.43;;;16.50;;
17725;SDS011;8983;53.156;17.960;2024-03-02T08:43:51;26.23;;;16.10;;
17725;SDS011;8983;53.156;17.960;2024-03-02T08:46:20;27.33;;;17.27;;
17725;SDS011;8983;53.156;17.960;2024-03-02T08:48:50;28.07;;;16.30;;
17725;SDS011;8983;53.156;17.960;2024-03-02T08:51:18;28.50;;;16.57;;
17725;SDS011;8983;53.156;17.960;2024-03-02T08:53:46;29.43;;;16.37;;
17725;SDS011;8983;53.156;17.960;2024-03-02T08:56:14;27.17;;;16.23;;
17725;SDS011;8983;53.156;17.960;2024-03-02T08:58:45;30.03;;;16.47;;
17725;SDS011;8983;53.156;17.960;2024-03-02T09:01:13;27.43;;;16.50;;
17725;SDS011;8983;53.156;17.960;2024-03-02T09:03:41;27.83;;;17.03;;
17725;SDS011;8983;53.156;17.960;2024-03-02T09:06:11;28.37;;;16.30;;
17725;SDS011;8983;53.156;17.960;2024-03-02T09:08:40;27.77;;;17.20;;
17725;SDS011;8983;53.156;17.960;2024-03-02T09:11:09;27.27;;;15.97;;
17725;SDS011;8983;53.156;17.960;2024-03-02T09:13:38;30.43;;;17.33;;
17725;SDS011;8983;53.156;17.960;2024-03-02T09:16:07;28.23;;;16.97;;
17725;SDS011;8983;53.156;17.960;2024-03-02T09:18:37;28.03;;;16.10;;
17725;SDS011;8983;53.156;17.960;2024-03-02T09:21:06;32.70;;;18.63;;
17725;SDS011;8983;53.156;17.960;2024-03-02T09:23:34;29.67;;;16.57;;
17725;SDS011;8983;53.156;17.960;2024-03-02T09:26:02;26.50;;;16.07;;
17725;SDS011;8983;53.156;17.960;2024-03-02T09:28:30;25.73;;;15.50;;
17725;SDS011;8983;53.156;17.960;2024-03-02T09:31:00;28.87;;;15.47;;
17725;SDS011;8983;53.156;17.960;2024-03-02T09:33:30;24.93;;;16.27;;
17725;SDS011;8983;53.156;17.960;2024-03-02T09:35:58;27.47;;;16.10;;
17725;SDS011;8983;53.156;17.960;2024-03-02T09:38:26;30.53;;;17.53;;
17725;SDS011;8983;53.156;17.960;2024-03-02T09:40:55;25.40;;;15.80;;
17725;SDS011;8983;53.156;17.960;2024-03-02T09:43:23;26.93;;;16.43;;
17725;SDS011;8983;53.156;17.960;2024-03-02T09:45:51;29.93;;;16.77;;
17725;SDS011;8983;53.156;17.960;2024-03-02T09:48:20;28.90;;;15.80;;
17725;SDS011;8983;53.156;17.960;2024-03-02T09:50:49;23.77;;;15.67;;
17725;SDS011;8983;53.156;17.960;2024-03-02T09:53:17;24.17;;;14.97;;
17725;SDS011;8983;53.156;17.960;2024-03-02T09:55:46;25.43;;;15.63;;
17725;SDS011;8983;53.156;17.960;2024-03-02T09:58:14;25.40;;;15.97;;
17725;SDS011;8983;53.156;17.960;2024-03-02T10:00:43;24.13;;;14.97;;
17725;SDS011;8983;53.156;17.960;2024-03-02T10:03:11;28.50;;;15.80;;
17725;SDS011;8983;53.156;17.960;2024-03-02T10:05:40;28.80;;;15.20;;
17725;SDS011;8983;53.156;17.960;2024-03-02T10:08:09;27.27;;;17.23;;
17725;SDS011;8983;53.156;17.960;2024-03-02T10:10:38;23.27;;;15.57;;
17725;SDS011;8983;53.156;17.960;2024-03-02T10:13:08;23.73;;;15.00;;
17725;SDS011;8983;53.156;17.960;2024-03-02T10:15:38;24.70;;;15.13;;
17725;SDS011;8983;53.156;17.960;2024-03-02T10:18:08;25.60;;;15.80;;
17725;SDS011;8983;53.156;17.960;2024-03-02T10:20:38;24.13;;;15.33;;
17725;SDS011;8983;53.156;17.960;2024-03-02T10:23:12;24.47;;;14.87;;
17725;SDS011;8983;53.156;17.960;2024-03-02T10:25:42;25.67;;;14.90;;
17725;SDS011;8983;53.156;17.960;2024-03-02T10:28:23;23.33;;;14.97;;
17725;SDS011;8983;53.156;17.960;2024-03-02T10:30:54;20.87;;;13.43;;
17725;SDS011;8983;53.156;17.960;2024-03-02T10:33:23;20.20;;;14.33;;
17725;SDS011;8983;53.156;17.960;2024-03-02T10:35:52;21.87;;;14.97;;
17725;SDS011;8983;53.156;17.960;2024-03-02T10:38:22;21.83;;;14.37;;
17725;SDS011;8983;53.156;17.960;2024-03-02T10:40:50;22.13;;;14.57;;
17725;SDS011;8983;53.156;17.960;2024-03-02T10:43:19;21.33;;;13.43;;
17725;SDS011;8983;53.156;17.960;2024-03-02T10:45:49;23.77;;;15.00;;
17725;SDS011;8983;53.156;17.960;2024-03-02T10:48:18;25.23;;;15.00;;
17725;SDS011;8983;53.156;17.960;2024-03-02T10:50:48;28.07;;;15.47;;
17725;SDS011;8983;53.156;17.960;2024-03-02T10:53:17;22.30;;;15.07;;
17725;SDS011;8983;53.156;17.960;2024-03-02T10:55:47;20.60;;;14.30;;
17725;SDS011;8983;53.156;17.960;2024-03-02T10:58:21;22.33;;;14.70;;
17725;SDS011;8983;53.156;17.960;2024-03-02T11:00:50;23.50;;;15.47;;
17725;SDS011;8983;53.156;17.960;2024-03-02T11:03:19;23.90;;;15.00;;
17725;SDS011;8983;53.156;17.960;2024-03-02T11:05:47;24.90;;;14.57;;
17725;SDS011;8983;53.156;17.960;2024-03-02T11:08:17;27.57;;;15.70;;
17725;SDS011;8983;53.156;17.960;2024-03-02T11:10:50;19.23;;;14.30;;
17725;SDS011;8983;53.156;17.960;2024-03-02T11:13:21;22.07;;;15.20;;
17725;SDS011;8983;53.156;17.960;2024-03-02T11:15:56;22.07;;;13.87;;
17725;SDS011;8983;53.156;17.960;2024-03-02T11:18:27;25.07;;;15.33;;
17725;SDS011;8983;53.156;17.960;2024-03-02T11:20:56;26.50;;;16.07;;
17725;SDS011;8983;53.156;17.960;2024-03-02T11:23:31;22.83;;;14.30;;
17725;SDS011;8983;53.156;17.960;2024-03-02T11:28:48;25.67;;;14.83;;
17725;SDS011;8983;53.156;17.960;2024-03-02T11:31:16;25.10;;;16.40;;
17725;SDS011;8983;53.156;17.960;2024-03-02T11:33:45;23.23;;;14.73;;
17725;SDS011;8983;53.156;17.960;2024-03-02T11:36:13;21.10;;;14.93;;
17725;SDS011;8983;53.156;17.960;2024-03-02T11:38:43;24.30;;;15.23;;
17725;SDS011;8983;53.156;17.960;2024-03-02T11:41:12;21.20;;;14.03;;
17725;SDS011;8983;53.156;17.960;2024-03-02T11:43:42;23.00;;;14.43;;
17725;SDS011;8983;53.156;17.960;2024-03-02T11:46:11;22.40;;;15.53;;
17725;SDS011;8983;53.156;17.960;2024-03-02T11:48:42;24.23;;;15.10;;
17725;SDS011;8983;53.156;17.960;2024-03-02T11:51:10;24.93;;;15.40;;
17725;SDS011;8983;53.156;17.960;2024-03-02T11:53:39;22.20;;;14.23;;
17725;SDS011;8983;53.156;17.960;2024-03-02T11:56:09;20.03;;;13.90;;
17725;SDS011;8983;53.156;17.960;2024-03-02T11:58:39;22.03;;;14.17;;
17725;SDS011;8983;53.156;17.960;2024-03-02T12:01:10;24.27;;;15.17;;
17725;SDS011;8983;53.156;17.960;2024-03-02T12:03:40;24.60;;;15.67;;
17725;SDS011;8983;53.156;17.960;2024-03-02T12:06:08;20.90;;;15.10;;
17725;SDS011;8983;53.156;17.960;2024-03-02T12:08:37;22.37;;;15.33;;
17725;SDS011;8983;53.156;17.960;2024-03-02T12:11:06;24.97;;;15.70;;
17725;SDS011;8983;53.156;17.960;2024-03-02T12:13:35;23.70;;;15.27;;
17725;SDS011;8983;53.156;17.960;2024-03-02T12:16:05;24.73;;;15.43;;
17725;SDS011;8983;53.156;17.960;2024-03-02T12:18:34;22.27;;;15.03;;
17725;SDS011;8983;53.156;17.960;2024-03-02T12:21:02;25.40;;;14.90;;
17725;SDS011;8983;53.156;17.960;2024-03-02T12:23:34;25.23;;;15.53;;
17725;SDS011;8983;53.156;17.960;2024-03-02T12:26:02;26.00;;;15.73;;
17725;SDS011;8983;53.156;17.960;2024-03-02T12:28:31;25.50;;;15.40;;
17725;SDS011;8983;53.156;17.960;2024-03-02T12:31:01;25.37;;;15.23;;
17725;SDS011;8983;53.156;17.960;2024-03-02T12:33:30;40.00;;;15.73;;
17725;SDS011;8983;53.156;17.960;2024-03-02T12:35:58;25.40;;;15.67;;
17725;SDS011;8983;53.156;17.960;2024-03-02T12:38:26;26.60;;;16.03;;
17725;SDS011;8983;53.156;17.960;2024-03-02T12:40:56;22.37;;;14.47;;
17725;SDS011;8983;53.156;17.960;2024-03-02T12:43:24;21.13;;;14.40;;
17725;SDS011;8983;53.156;17.960;2024-03-02T12:45:53;23.10;;;14.67;;
17725;SDS011;8983;53.156;17.960;2024-03-02T12:48:22;23.17;;;14.67;;
17725;SDS011;8983;53.156;17.960;2024-03-02T12:50:52;21.70;;;15.03;;
17725;SDS011;8983;53.156;17.960;2024-03-02T12:53:21;23.33;;;15.50;;
17725;SDS011;8983;53.156;17.960;2024-03-02T12:55:49;23.70;;;14.53;;
17725;SDS011;8983;53.156;17.960;2024-03-02T12:58:18;23.97;;;15.00;;
17725;SDS011;8983;53.156;17.960;2024-03-02T13:00:48;24.17;;;15.83;;
17725;SDS011;8983;53.156;17.960;2024-03-02T13:03:17;22.63;;;15.20;;
17725;SDS011;8983;53.156;17.960;2024-03-02T13:05:51;25.67;;;15.27;;
17725;SDS011;8983;53.156;17.960;2024-03-02T13:08:20;22.05;;;14.80;;
17725;SDS011;8983;53.156;17.960;2024-03-02T13:10:48;22.43;;;14.90;;
17725;SDS011;8983;53.156;17.960;2024-03-02T13:13:17;20.63;;;14.20;;
17725;SDS011;8983;53.156;17.960;2024-03-02T13:15:45;19.07;;;13.70;;
17725;SDS011;8983;53.156;17.960;2024-03-02T13:18:13;22.37;;;15.13;;
17725;SDS011;8983;53.156;17.960;2024-03-02T13:20:41;23.10;;;15.07;;
17725;SDS011;8983;53.156;17.960;2024-03-02T13:23:11;24.23;;;15.73;;
17725;SDS011;8983;53.156;17.960;2024-03-02T13:25:39;24.20;;;16.33;;
17725;SDS011;8983;53.156;17.960;2024-03-02T13:28:07;22.93;;;14.77;;
17725;SDS011;8983;53.156;17.960;2024-03-02T13:30:35;24.50;;;15.03;;
17725;SDS011;8983;53.156;17.960;2024-03-02T13:33:04;24.13;;;14.77;;
17725;SDS011;8983;53.156;17.960;2024-03-02T13:35:32;22.80;;;15.53;;
17725;SDS011;8983;53.156;17.960;2024-03-02T13:38:00;24.30;;;16.23;;
17725;SDS011;8983;53.156;17.960;2024-03-02T13:40:30;25.63;;;16.50;;
17725;SDS011;8983;53.156;17.960;2024-03-02T13:43:02;26.03;;;16.43;;
17725;SDS011;8983;53.156;17.960;2024-03-02T13:45:30;30.40;;;17.00;;
17725;SDS011;8983;53.156;17.960;2024-03-02T13:47:59;26.20;;;17.13;;
17725;SDS011;8983;53.156;17.960;2024-03-02T13:50:28;28.13;;;16.50;;
17725;SDS011;8983;53.156;17.960;2024-03-02T13:52:57;27.83;;;17.43;;
17725;SDS011;8983;53.156;17.960;2024-03-02T13:55:25;33.03;;;19.40;;
17725;SDS011;8983;53.156;17.960;2024-03-02T13:57:54;33.60;;;20.23;;
17725;SDS011;8983;53.156;17.960;2024-03-02T14:00:23;32.47;;;20.67;;
17725;SDS011;8983;53.156;17.960;2024-03-02T14:02:51;30.77;;;20.67;;
17725;SDS011;8983;53.156;17.960;2024-03-02T14:05:20;32.00;;;20.33;;
17725;SDS011;8983;53.156;17.960;2024-03-02T14:07:48;32.93;;;20.03;;
17725;SDS011;8983;53.156;17.960;2024-03-02T14:10:16;31.93;;;20.20;;
17725;SDS011;8983;53.156;17.960;2024-03-02T14:12:48;32.90;;;20.97;;
17725;SDS011;8983;53.156;17.960;2024-03-02T14:15:18;35.20;;;21.63;;
17725;SDS011;8983;53.156;17.960;2024-03-02T14:17:47;37.37;;;21.83;;
17725;SDS011;8983;53.156;17.960;2024-03-02T14:20:15;35.67;;;22.03;;
17725;SDS011;8983;53.156;17.960;2024-03-02T14:22:48;33.80;;;21.60;;
17725;SDS011;8983;53.156;17.960;2024-03-02T14:25:16;37.17;;;22.73;;
17725;SDS011;8983;53.156;17.960;2024-03-02T14:27:45;34.90;;;21.40;;
17725;SDS011;8983;53.156;17.960;2024-03-02T14:30:35;38.43;;;21.80;;
17725;SDS011;8983;53.156;17.960;2024-03-02T14:33:04;37.10;;;21.00;;
17725;SDS011;8983;53.156;17.960;2024-03-02T14:35:32;38.70;;;22.93;;